Terminal Aerodrome Forecast
Issued by NWS

Home | Current Version | Previous Version | Text Only | Print | Product List | Glossary On
Versions: 1 2 3 4 5 6 7 8 9 10 11 12 13 14 15 16 17 18 19
000
FTUS43 KEAX 312300
TAFSTJ
TAF
KSTJ 312339Z 0100/0124 18012G22KT P6SM SCT080 SCT120
     FM010100 17014G22KT P6SM VCTS SCT050CB
     FM010200 18010KT 3SM -TSRA SCT025CB BKN040
      TEMPO 0102/0104 VRB30G45KT 2SM TSRA BR SCT015CB OVC025
     FM010600 18008KT 4SM -SHRA VCTS SCT015CB OVC025
     FM011000 21006KT P6SM SCT025 OVC035
     FM011600 32005KT P6SM SCT025 OVC035=

USA.gov is the U.S. government's official web portal to all federal, state and local government web resources and services.